createdAt,value
2022-11-16T00:02:23.460Z,92913.00
2022-11-16T00:04:50.380Z,92912.00
2022-11-16T00:07:17.474Z,92911.00
2022-11-16T00:09:44.417Z,92902.00
2022-11-16T00:12:14.501Z,92897.00
2022-11-16T00:14:43.435Z,92900.00
2022-11-16T00:17:10.290Z,92890.00
2022-11-16T00:19:37.310Z,92895.00
2022-11-16T00:22:06.622Z,92895.00
2022-11-16T00:24:33.437Z,92883.00
2022-11-16T00:27:00.310Z,92885.00
2022-11-16T00:29:29.766Z,92886.00
2022-11-16T00:32:01.133Z,92888.00
2022-11-16T00:34:32.734Z,92891.00
2022-11-16T00:37:01.984Z,92885.00
2022-11-16T00:39:28.842Z,92888.00
2022-11-16T00:41:58.329Z,92898.00
2022-11-16T00:44:25.326Z,92895.00
2022-11-16T00:46:55.365Z,92890.00
2022-11-16T00:49:22.424Z,92894.00
2022-11-16T00:51:51.941Z,92890.00
2022-11-16T00:54:18.971Z,92894.00
2022-11-16T00:56:52.810Z,92886.00
2022-11-16T00:59:22.299Z,92891.00
2022-11-16T01:01:51.466Z,92889.00
2022-11-16T01:04:19.022Z,92874.00
2022-11-16T01:06:51.069Z,92878.00
2022-11-16T01:09:20.568Z,92877.00
2022-11-16T01:12:06.264Z,92863.00
2022-11-16T01:14:48.200Z,92883.00
2022-11-16T01:17:17.478Z,92877.00
2022-11-16T01:19:46.572Z,92889.00
2022-11-16T01:22:15.647Z,92887.00
2022-11-16T01:24:42.892Z,92881.00
2022-11-16T01:27:09.868Z,92879.00
2022-11-16T01:29:39.307Z,92877.00
2022-11-16T01:32:11.139Z,92875.00
2022-11-16T01:34:41.125Z,92875.00
2022-11-16T01:37:08.178Z,92880.00
2022-11-16T01:39:35.304Z,92874.00
2022-11-16T01:42:05.677Z,92882.00
2022-11-16T01:44:35.119Z,92883.00
2022-11-16T01:47:06.871Z,92881.00
2022-11-16T01:49:40.928Z,92885.00
2022-11-16T01:52:16.216Z,92881.00
2022-11-16T01:54:46.972Z,92883.00
2022-11-16T01:57:23.260Z,92891.00
2022-11-16T02:00:03.830Z,92900.00
2022-11-16T02:02:31.839Z,92909.00
2022-11-16T02:05:02.678Z,92904.00
2022-11-16T02:08:32.927Z,92909.00
2022-11-16T02:11:14.318Z,92911.00
2022-11-16T02:14:37.241Z,92904.00
2022-11-16T02:18:01.099Z,92911.00
2022-11-16T02:20:52.139Z,92909.00
2022-11-16T02:23:58.708Z,92904.00
2022-11-16T02:26:31.339Z,92903.00
2022-11-16T02:29:28.705Z,92899.00
2022-11-16T02:32:19.246Z,92895.00
2022-11-16T02:34:58.695Z,92886.00
2022-11-16T02:37:30.494Z,92883.00
2022-11-16T02:40:04.073Z,92894.00
2022-11-16T02:42:54.884Z,92879.00
2022-11-16T02:45:36.460Z,92881.00
2022-11-16T02:48:17.397Z,92874.00
2022-11-16T02:50:48.009Z,92871.00
2022-11-16T02:53:17.960Z,92868.00
2022-11-16T02:55:44.934Z,92866.00
2022-11-16T02:58:20.903Z,92855.00
2022-11-16T03:01:03.649Z,92850.00
2022-11-16T03:03:56.819Z,92846.00
2022-11-16T03:06:34.754Z,92849.00
2022-11-16T03:09:05.953Z,92857.00
2022-11-16T03:11:59.240Z,92858.00
2022-11-16T03:14:36.315Z,92863.00
2022-11-16T03:17:09.201Z,92854.00
2022-11-16T03:19:58.285Z,92864.00
2022-11-16T03:22:41.859Z,92859.00
2022-11-16T03:25:14.597Z,92869.00
2022-11-16T03:28:02.723Z,92874.00
2022-11-16T03:30:38.575Z,92864.00
2022-11-16T03:33:28.031Z,92880.00
2022-11-16T03:36:16.284Z,92877.00
2022-11-16T03:38:45.779Z,92882.00
2022-11-16T03:41:14.208Z,92882.00
2022-11-16T03:43:47.518Z,92887.00
2022-11-16T03:46:19.252Z,92889.00
2022-11-16T03:48:46.608Z,92900.00
2022-11-16T03:51:14.030Z,92888.00
2022-11-16T03:53:43.993Z,92895.00
2022-11-16T03:56:13.870Z,92890.00
2022-11-16T03:58:42.786Z,92896.00
2022-11-16T04:01:15.228Z,92883.00
2022-11-16T04:03:42.380Z,92885.00
2022-11-16T04:06:31.286Z,92896.00
2022-11-16T04:09:17.483Z,92883.00
2022-11-16T04:12:03.348Z,92900.00
2022-11-16T04:14:49.281Z,92888.00
2022-11-16T04:17:37.228Z,92886.00
2022-11-16T04:20:25.375Z,92890.00
2022-11-16T04:23:18.716Z,92882.00
2022-11-16T04:25:47.961Z,92895.00
2022-11-16T04:28:26.915Z,92885.00
2022-11-16T04:31:23.689Z,92883.00
2022-11-16T04:34:11.202Z,92877.00
2022-11-16T04:36:57.086Z,92886.00
2022-11-16T04:39:24.087Z,92887.00
2022-11-16T04:42:09.319Z,92883.00
2022-11-16T04:44:55.554Z,92889.00
2022-11-16T04:47:22.500Z,92878.00
2022-11-16T04:49:49.684Z,92883.00
2022-11-16T04:52:19.109Z,92887.00
2022-11-16T04:54:46.660Z,92871.00
2022-11-16T04:57:13.616Z,92864.00
2022-11-16T04:59:43.088Z,92863.00
2022-11-16T05:02:09.990Z,92867.00
2022-11-16T05:04:43.071Z,92869.00
2022-11-16T05:07:12.819Z,92853.00
2022-11-16T05:09:48.405Z,92855.00
2022-11-16T05:12:25.682Z,92862.00
2022-11-16T05:14:53.573Z,92863.00
2022-11-16T05:17:22.984Z,92855.00
2022-11-16T05:20:08.775Z,92859.00
2022-11-16T05:22:38.756Z,92863.00
2022-11-16T05:25:10.391Z,92861.00
2022-11-16T05:27:37.542Z,92863.00
2022-11-16T05:30:08.983Z,92846.00
2022-11-16T05:32:37.996Z,92856.00
2022-11-16T05:35:08.198Z,92859.00
2022-11-16T05:37:37.351Z,92861.00
2022-11-16T05:40:04.957Z,92864.00
2022-11-16T05:42:31.822Z,92867.00
2022-11-16T05:44:58.739Z,92863.00
2022-11-16T05:47:28.679Z,92859.00
2022-11-16T05:49:55.528Z,92866.00
2022-11-16T05:52:22.370Z,92860.00
2022-11-16T05:54:56.242Z,92865.00
2022-11-16T05:57:23.066Z,92870.00
2022-11-16T05:59:52.526Z,92872.00
2022-11-16T06:02:19.364Z,92866.00
2022-11-16T06:04:46.185Z,92875.00
2022-11-16T06:07:13.146Z,92875.00
2022-11-16T06:09:40.063Z,92881.00
2022-11-16T06:12:11.896Z,92885.00
2022-11-16T06:14:38.779Z,92882.00
2022-11-16T06:17:08.686Z,92875.00
2022-11-16T06:19:35.846Z,92877.00
2022-11-16T06:22:02.829Z,92876.00
2022-11-16T06:24:29.747Z,92876.00
2022-11-16T06:26:56.695Z,92878.00
2022-11-16T06:29:23.671Z,92884.00
2022-11-16T06:31:53.127Z,92895.00
2022-11-16T06:34:20.095Z,92898.00
2022-11-16T06:36:49.556Z,92895.00
2022-11-16T06:39:16.456Z,92895.00
2022-11-16T06:41:43.363Z,92898.00
2022-11-16T06:44:10.237Z,92890.00
2022-11-16T06:46:37.136Z,92907.00
2022-11-16T06:49:06.471Z,92914.00
2022-11-16T06:51:36.370Z,92913.00
2022-11-16T06:54:08.390Z,92901.00
2022-11-16T06:56:35.631Z,92908.00
2022-11-16T06:59:02.627Z,92905.00
2022-11-16T07:01:29.590Z,92903.00
2022-11-16T07:03:57.748Z,92906.00
2022-11-16T07:06:30.349Z,92902.00
2022-11-16T07:08:59.729Z,92918.00
2022-11-16T07:11:29.252Z,92911.00
2022-11-16T07:13:56.191Z,92912.00
2022-11-16T07:16:25.469Z,92915.00
2022-11-16T07:18:52.721Z,92916.00
2022-11-16T07:21:19.634Z,92919.00
2022-11-16T07:23:46.517Z,92913.00
2022-11-16T07:26:17.992Z,92915.00
2022-11-16T07:28:48.111Z,92919.00
2022-11-16T07:31:16.907Z,92918.00
2022-11-16T07:33:43.953Z,92926.00
2022-11-16T07:36:14.276Z,92926.00
2022-11-16T07:38:41.696Z,92929.00
2022-11-16T07:41:15.230Z,92931.00
2022-11-16T07:43:51.510Z,92932.00
2022-11-16T07:46:47.487Z,92930.00
2022-11-16T07:49:18.271Z,92925.00
2022-11-16T07:51:45.857Z,92929.00
2022-11-16T07:54:14.876Z,92942.00
2022-11-16T07:56:45.152Z,92948.00
2022-11-16T07:59:16.361Z,92954.00
2022-11-16T08:01:43.345Z,92947.00
2022-11-16T08:04:10.273Z,92950.00
2022-11-16T08:06:37.314Z,92937.00
2022-11-16T08:09:04.414Z,92956.00
2022-11-16T08:11:33.564Z,92942.00
2022-11-16T08:14:00.414Z,92950.00
2022-11-16T08:16:29.869Z,92953.00
2022-11-16T08:18:56.870Z,92959.00
2022-11-16T08:21:23.752Z,92953.00
2022-11-16T08:23:58.201Z,92955.00
2022-11-16T08:26:28.211Z,92956.00
2022-11-16T08:28:58.183Z,92951.00
2022-11-16T08:31:28.091Z,92966.00
2022-11-16T08:33:56.606Z,92949.00
2022-11-16T08:36:23.634Z,92942.00
2022-11-16T08:38:52.462Z,92946.00
2022-11-16T08:41:20.503Z,92949.00
2022-11-16T08:43:47.641Z,92946.00
2022-11-16T08:46:15.002Z,92947.00
2022-11-16T08:48:42.631Z,92945.00
2022-11-16T08:51:19.716Z,92957.00
2022-11-16T08:53:49.022Z,92957.00
2022-11-16T08:56:19.021Z,92947.00
2022-11-16T08:58:55.299Z,92949.00
2022-11-16T09:01:28.045Z,92954.00
2022-11-16T09:03:55.296Z,92952.00
2022-11-16T09:06:23.676Z,92955.00
2022-11-16T09:08:52.282Z,92949.00
2022-11-16T09:11:23.465Z,92951.00
2022-11-16T09:13:52.793Z,92959.00
2022-11-16T09:16:20.971Z,92956.00
2022-11-16T09:18:52.150Z,92957.00
2022-11-16T09:21:24.531Z,92959.00
2022-11-16T09:23:52.135Z,92946.00
2022-11-16T09:26:24.850Z,92958.00
2022-11-16T09:28:55.881Z,92965.00
2022-11-16T09:31:27.308Z,92961.00
2022-11-16T09:33:58.671Z,92966.00
2022-11-16T09:36:30.595Z,92970.00
2022-11-16T09:39:41.986Z,92972.00
2022-11-16T09:42:07.266Z,92973.00
2022-11-16T09:44:52.481Z,92968.00
2022-11-16T09:47:25.886Z,92973.00
2022-11-16T09:50:04.087Z,92973.00
2022-11-16T09:52:46.468Z,92971.00
2022-11-16T09:55:24.843Z,92973.00
2022-11-16T09:57:57.174Z,92963.00
2022-11-16T10:00:26.766Z,92967.00
2022-11-16T10:03:10.824Z,92961.00
2022-11-16T10:06:07.579Z,92966.00
2022-11-16T10:08:47.121Z,92967.00
2022-11-16T10:11:25.881Z,92971.00
2022-11-16T10:13:58.864Z,92973.00
2022-11-16T10:17:12.125Z,92968.00
2022-11-16T10:20:03.400Z,92966.00
2022-11-16T10:22:57.657Z,92972.00
2022-11-16T10:25:55.274Z,92966.00
2022-11-16T10:28:49.860Z,92959.00
2022-11-16T10:31:50.895Z,92958.00
2022-11-16T10:34:26.138Z,92972.00
2022-11-16T10:36:57.546Z,92962.00
2022-11-16T10:39:28.423Z,92954.00
2022-11-16T10:41:56.726Z,92958.00
2022-11-16T10:44:39.676Z,92941.00
2022-11-16T10:47:33.920Z,92941.00
2022-11-16T10:50:23.015Z,92936.00
2022-11-16T10:52:56.949Z,92934.00
2022-11-16T10:55:24.629Z,92931.00
2022-11-16T10:58:08.777Z,92927.00
2022-11-16T11:00:51.744Z,92941.00
2022-11-16T11:03:34.906Z,92933.00
2022-11-16T11:06:02.382Z,92926.00
2022-11-16T11:08:34.078Z,92931.00
2022-11-16T11:11:28.432Z,92931.00
2022-11-16T11:14:15.598Z,92919.00
2022-11-16T11:16:42.696Z,92925.00
2022-11-16T11:19:28.502Z,92922.00
2022-11-16T11:22:00.139Z,92917.00
2022-11-16T11:24:43.822Z,92920.00
2022-11-16T11:27:12.104Z,92918.00
2022-11-16T11:29:43.082Z,92912.00
2022-11-16T11:32:22.390Z,92908.00
2022-11-16T11:34:56.727Z,92897.00
2022-11-16T11:37:37.199Z,92910.00
2022-11-16T11:40:30.766Z,92919.00
2022-11-16T11:43:07.219Z,92914.00
2022-11-16T11:45:51.663Z,92905.00
2022-11-16T11:48:51.980Z,92903.00
2022-11-16T11:51:34.031Z,92913.00
2022-11-16T11:54:06.331Z,92918.00
2022-11-16T11:56:35.864Z,92913.00
2022-11-16T11:59:05.382Z,92915.00
2022-11-16T12:02:12.292Z,92917.00
2022-11-16T12:05:14.062Z,92926.00
2022-11-16T12:07:55.665Z,92917.00
2022-11-16T12:10:36.074Z,92910.00
2022-11-16T12:13:36.512Z,92918.00
2022-11-16T12:16:15.513Z,92908.00
2022-11-16T12:19:19.685Z,92910.00
2022-11-16T12:22:21.108Z,92909.00
2022-11-16T12:25:30.362Z,92908.00
2022-11-16T12:28:29.296Z,92897.00
2022-11-16T12:31:27.251Z,92891.00
2022-11-16T12:34:02.703Z,92898.00
2022-11-16T12:36:53.068Z,92890.00
2022-11-16T12:39:35.467Z,92884.00
2022-11-16T12:42:19.643Z,92889.00
2022-11-16T12:45:37.648Z,92886.00
2022-11-16T12:48:44.799Z,92885.00
2022-11-16T12:51:18.003Z,92884.00
2022-11-16T12:54:12.550Z,92876.00
2022-11-16T12:57:00.483Z,92870.00
2022-11-16T13:00:10.301Z,92871.00
2022-11-16T13:03:02.773Z,92867.00
2022-11-16T13:05:56.889Z,92858.00
2022-11-16T13:08:59.197Z,92839.00
2022-11-16T13:11:32.595Z,92844.00
2022-11-16T13:14:26.242Z,92843.00
2022-11-16T13:16:54.742Z,92837.00
2022-11-16T13:19:31.581Z,92841.00
2022-11-16T13:22:07.367Z,92842.00
2022-11-16T13:25:14.587Z,92828.00
2022-11-16T13:27:53.595Z,92842.00
2022-11-16T13:30:46.987Z,92842.00
2022-11-16T13:33:42.291Z,92841.00
2022-11-16T13:36:32.661Z,92843.00
2022-11-16T13:39:01.858Z,92838.00
2022-11-16T13:41:38.653Z,92839.00
2022-11-16T13:44:26.552Z,92827.00
2022-11-16T13:47:04.968Z,92826.00
2022-11-16T13:49:51.856Z,92823.00
2022-11-16T13:52:23.854Z,92828.00
2022-11-16T13:54:54.605Z,92825.00
2022-11-16T13:57:36.025Z,92811.00
2022-11-16T14:00:02.828Z,92822.00
2022-11-16T14:02:39.637Z,92823.00
2022-11-16T14:05:12.391Z,92835.00
2022-11-16T14:07:52.256Z,92830.00
2022-11-16T14:10:34.476Z,92824.00
2022-11-16T14:13:06.418Z,92818.00
2022-11-16T14:15:38.678Z,92805.00
2022-11-16T14:18:09.165Z,92813.00
2022-11-16T14:20:59.422Z,92807.00
2022-11-16T14:23:50.355Z,92815.00
2022-11-16T14:26:38.742Z,92815.00
2022-11-16T14:29:40.694Z,92814.00
2022-11-16T14:32:23.096Z,92811.00
2022-11-16T14:34:53.394Z,92809.00
2022-11-16T14:37:24.438Z,92811.00
2022-11-16T14:39:53.552Z,92816.00
2022-11-16T14:42:24.348Z,92812.00
2022-11-16T14:45:08.888Z,92802.00
2022-11-16T14:47:37.234Z,92797.00
2022-11-16T14:50:04.852Z,92802.00
2022-11-16T14:52:43.993Z,92807.00
2022-11-16T14:55:25.882Z,92804.00
2022-11-16T14:58:22.191Z,92790.00
2022-11-16T15:01:08.350Z,92785.00
2022-11-16T15:03:51.810Z,92794.00
2022-11-16T15:06:22.284Z,92798.00
2022-11-16T15:09:14.637Z,92800.00
2022-11-16T15:12:01.514Z,92793.00
2022-11-16T15:14:35.514Z,92817.00
2022-11-16T15:17:02.787Z,92810.00
2022-11-16T15:19:31.884Z,92804.00
2022-11-16T15:22:01.736Z,92802.00
2022-11-16T15:24:32.520Z,92797.00
2022-11-16T15:27:24.846Z,92791.00
2022-11-16T15:29:54.269Z,92800.00
2022-11-16T15:32:21.339Z,92771.00
2022-11-16T15:34:53.631Z,92788.00
2022-11-16T15:37:28.877Z,92770.00
2022-11-16T15:39:57.810Z,92777.00
2022-11-16T15:42:27.155Z,92789.00
2022-11-16T15:44:55.007Z,92778.00
2022-11-16T15:47:23.250Z,92771.00
2022-11-16T15:49:53.146Z,92770.00
2022-11-16T15:52:43.745Z,92772.00
2022-11-16T15:55:34.542Z,92755.00
2022-11-16T15:58:11.896Z,92758.00
2022-11-16T16:00:41.695Z,92753.00
2022-11-16T16:03:31.732Z,92763.00
2022-11-16T16:05:58.915Z,92761.00
2022-11-16T16:08:46.034Z,92749.00
2022-11-16T16:11:33.115Z,92759.00
2022-11-16T16:14:07.556Z,92763.00
2022-11-16T16:16:37.356Z,92756.00
2022-11-16T16:19:37.308Z,92746.00
2022-11-16T16:22:12.353Z,92751.00
2022-11-16T16:24:45.698Z,92757.00
2022-11-16T16:27:22.743Z,92765.00
2022-11-16T16:29:55.808Z,92761.00
2022-11-16T16:32:34.352Z,92754.00
2022-11-16T16:35:04.944Z,92760.00
2022-11-16T16:37:34.046Z,92758.00
2022-11-16T16:40:01.074Z,92754.00
2022-11-16T16:42:30.761Z,92763.00
2022-11-16T16:45:02.758Z,92770.00
2022-11-16T16:47:32.158Z,92753.00
2022-11-16T16:49:59.016Z,92755.00
2022-11-16T16:52:30.602Z,92758.00
2022-11-16T16:54:57.422Z,92753.00
2022-11-16T16:57:24.371Z,92760.00
2022-11-16T16:59:53.717Z,92761.00
2022-11-16T17:02:23.185Z,92760.00
2022-11-16T17:04:50.037Z,92752.00
2022-11-16T17:07:17.382Z,92752.00
2022-11-16T17:09:46.847Z,92752.00
2022-11-16T17:12:13.758Z,92752.00
2022-11-16T17:14:51.195Z,92737.00
2022-11-16T17:17:19.479Z,92745.00
2022-11-16T17:19:46.975Z,92748.00
2022-11-16T17:22:16.963Z,92742.00
2022-11-16T17:24:45.977Z,92752.00
2022-11-16T17:27:15.274Z,92752.00
2022-11-16T17:29:42.317Z,92761.00
2022-11-16T17:32:11.461Z,92755.00
2022-11-16T17:34:45.777Z,92765.00
2022-11-16T17:37:13.922Z,92752.00
2022-11-16T17:39:43.102Z,92758.00
2022-11-16T17:42:10.741Z,92749.00
2022-11-16T17:44:37.624Z,92750.00
2022-11-16T17:47:07.422Z,92748.00
2022-11-16T17:49:34.527Z,92735.00
2022-11-16T17:52:04.952Z,92738.00
2022-11-16T17:54:34.045Z,92738.00
2022-11-16T17:57:01.112Z,92722.00
2022-11-16T17:59:30.823Z,92715.00
2022-11-16T18:02:00.150Z,92709.00
2022-11-16T18:04:29.203Z,92700.00
2022-11-16T18:06:56.346Z,92713.00
2022-11-16T18:09:24.115Z,92700.00
2022-11-16T18:11:51.058Z,92702.00
2022-11-16T18:14:20.405Z,92707.00
2022-11-16T18:16:48.151Z,92701.00
2022-11-16T18:19:20.722Z,92707.00
2022-11-16T18:21:50.100Z,92685.00
2022-11-16T18:24:20.340Z,92689.00
2022-11-16T18:26:47.694Z,92688.00
2022-11-16T18:29:16.067Z,92667.00
2022-11-16T18:31:43.398Z,92654.00
2022-11-16T18:34:14.350Z,92651.00
2022-11-16T18:36:44.132Z,92649.00
2022-11-16T18:39:11.104Z,92642.00
2022-11-16T18:41:54.518Z,92642.00
2022-11-16T18:44:22.260Z,92645.00
2022-11-16T18:46:49.157Z,92638.00
2022-11-16T18:49:18.623Z,92639.00
2022-11-16T18:51:48.048Z,92631.00
2022-11-16T18:54:17.088Z,92632.00
2022-11-16T18:56:44.015Z,92630.00
2022-11-16T18:59:10.986Z,92629.00
2022-11-16T19:01:37.937Z,92615.00
2022-11-16T19:04:08.765Z,92619.00
2022-11-16T19:06:35.754Z,92612.00
2022-11-16T19:09:06.223Z,92613.00
2022-11-16T19:11:36.428Z,92600.00
2022-11-16T19:14:04.717Z,92597.00
2022-11-16T19:16:32.171Z,92609.00
2022-11-16T19:18:59.888Z,92611.00
2022-11-16T19:21:29.583Z,92612.00
2022-11-16T19:23:59.873Z,92631.00
2022-11-16T19:26:28.247Z,92634.00
2022-11-16T19:28:55.237Z,92630.00
2022-11-16T19:31:30.362Z,92634.00
2022-11-16T19:34:04.640Z,92643.00
2022-11-16T19:36:36.318Z,92663.00
2022-11-16T19:39:05.874Z,92678.00
2022-11-16T19:41:35.281Z,92674.00
2022-11-16T19:44:09.316Z,92672.00
2022-11-16T19:46:36.519Z,92673.00
2022-11-16T19:49:03.870Z,92663.00
2022-11-16T19:51:35.730Z,92654.00
2022-11-16T19:54:04.331Z,92652.00
2022-11-16T19:56:33.796Z,92661.00
2022-11-16T19:59:00.982Z,92655.00
2022-11-16T20:01:31.174Z,92619.00
2022-11-16T20:04:03.570Z,92617.00
2022-11-16T20:06:36.886Z,92603.00
2022-11-16T20:09:09.017Z,92603.00
2022-11-16T20:11:41.187Z,92597.00
2022-11-16T20:14:11.510Z,92610.00
2022-11-16T20:16:43.573Z,92607.00
2022-11-16T20:19:11.106Z,92605.00
2022-11-16T20:21:45.327Z,92603.00
2022-11-16T20:24:15.320Z,92599.00
2022-11-16T20:26:48.512Z,92591.00
2022-11-16T20:29:18.205Z,92601.00
2022-11-16T20:31:47.813Z,92604.00
2022-11-16T20:34:17.017Z,92602.00
2022-11-16T20:36:50.745Z,92605.00
2022-11-16T20:39:20.283Z,92607.00
2022-11-16T20:41:50.183Z,92605.00
2022-11-16T20:44:21.409Z,92596.00
2022-11-16T20:46:50.613Z,92597.00
2022-11-16T20:49:17.609Z,92580.00
2022-11-16T20:51:47.577Z,92580.00
2022-11-16T20:54:17.625Z,92579.00
2022-11-16T20:56:44.862Z,92583.00
2022-11-16T20:59:11.909Z,92582.00
2022-11-16T21:01:38.969Z,92574.00
2022-11-16T21:04:08.534Z,92580.00
2022-11-16T21:06:35.405Z,92587.00
2022-11-16T21:09:02.435Z,92584.00
2022-11-16T21:11:52.428Z,92588.00
2022-11-16T21:14:20.547Z,92584.00
2022-11-16T21:16:52.706Z,92568.00
2022-11-16T21:19:21.897Z,92584.00
2022-11-16T21:21:49.061Z,92582.00
2022-11-16T21:24:26.433Z,92572.00
2022-11-16T21:26:53.504Z,92579.00
2022-11-16T21:29:26.960Z,92578.00
2022-11-16T21:31:57.395Z,92577.00
2022-11-16T21:34:25.431Z,92573.00
2022-11-16T21:36:54.808Z,92571.00
2022-11-16T21:39:21.796Z,92576.00
2022-11-16T21:41:49.870Z,92577.00
2022-11-16T21:44:18.088Z,92582.00
2022-11-16T21:46:48.470Z,92574.00
2022-11-16T21:49:15.411Z,92578.00
2022-11-16T21:51:45.338Z,92575.00
2022-11-16T21:54:12.497Z,92568.00
2022-11-16T21:56:41.656Z,92566.00
2022-11-16T21:59:08.654Z,92571.00
2022-11-16T22:01:59.011Z,92562.00
2022-11-16T22:04:47.012Z,92558.00
2022-11-16T22:07:36.716Z,92548.00
2022-11-16T22:10:11.501Z,92548.00
2022-11-16T22:12:39.217Z,92550.00
2022-11-16T22:15:11.779Z,92537.00
2022-11-16T22:17:45.614Z,92536.00
2022-11-16T22:20:15.511Z,92530.00
2022-11-16T22:22:44.787Z,92536.00
2022-11-16T22:25:13.829Z,92540.00
2022-11-16T22:27:58.728Z,92537.00
2022-11-16T22:30:28.518Z,92536.00
2022-11-16T22:32:55.483Z,92540.00
2022-11-16T22:35:23.766Z,92534.00
2022-11-16T22:37:52.936Z,92530.00
2022-11-16T22:40:22.848Z,92523.00
2022-11-16T22:42:54.290Z,92518.00
2022-11-16T22:45:25.331Z,92504.00
2022-11-16T22:47:55.136Z,92523.00
2022-11-16T22:50:24.139Z,92531.00
2022-11-16T22:52:53.907Z,92520.00
2022-11-16T22:55:24.426Z,92513.00
2022-11-16T22:57:52.088Z,92489.00
2022-11-16T23:00:23.373Z,92497.00
2022-11-16T23:02:52.041Z,92494.00
2022-11-16T23:05:20.291Z,92506.00
2022-11-16T23:07:49.743Z,92519.00
2022-11-16T23:10:20.667Z,92513.00
2022-11-16T23:13:05.803Z,92513.00
2022-11-16T23:15:51.577Z,92516.00
2022-11-16T23:18:22.819Z,92509.00
2022-11-16T23:21:10.453Z,92507.00
2022-11-16T23:23:56.019Z,92502.00
2022-11-16T23:26:45.245Z,92482.00
2022-11-16T23:29:17.612Z,92490.00
2022-11-16T23:31:49.241Z,92464.00
2022-11-16T23:34:16.362Z,92439.00
2022-11-16T23:36:55.973Z,92468.00
2022-11-16T23:39:22.928Z,92468.00
2022-11-16T23:42:08.481Z,92469.00
2022-11-16T23:44:36.582Z,92476.00
2022-11-16T23:47:05.716Z,92484.00
2022-11-16T23:49:36.728Z,92491.00
2022-11-16T23:52:04.355Z,92493.00
2022-11-16T23:54:32.797Z,92481.00
2022-11-16T23:56:59.710Z,92469.00
2022-11-16T23:59:31.457Z,92479.00
